Time;durP1;ratioP1;P1;durP2;ratioP2;P2;SDS_P1;SDS_P2;PMS_P1;PMS_P2;Temp;Humidity;BMP_temperature;BMP_pressure;BME280_temperature;BME280_humidity;BME280_pressure;Samples;Min_cycle;Max_cycle;Signal;HPM_P1;HPM_P2
2023/11/26 00:03:32;;;;;;;3.55;1.52;;;15.40;66.40;;;;;;10454676;28;20029;-56
2023/11/26 00:08:33;;;;;;;2.83;1.20;;;15.40;66.70;;;;;;10442072;28;20029;-56
2023/11/26 00:13:34;;;;;;;2.30;1.33;;;15.40;66.70;;;;;;10454334;28;20407;-56
2023/11/26 00:18:37;;;;;;;3.63;1.63;;;15.30;66.40;;;;;;10453300;28;20033;-56
2023/11/26 00:23:38;;;;;;;2.83;1.48;;;15.30;66.70;;;;;;10453567;28;20037;-56
2023/11/26 00:28:39;;;;;;;2.47;1.42;;;15.30;66.90;;;;;;10453223;28;20155;-57
2023/11/26 00:33:44;;;;;;;2.35;1.20;;;15.30;66.70;;;;;;10453346;28;20029;-56
2023/11/26 00:38:46;;;;;;;6.50;2.47;;;15.30;66.90;;;;;;10452917;28;20067;-56
2023/11/26 00:43:47;;;;;;;5.28;2.28;;;15.30;66.90;;;;;;10451594;28;20029;-56
2023/11/26 00:48:48;;;;;;;3.08;1.48;;;15.20;66.90;;;;;;10452594;28;20028;-56
2023/11/26 00:53:49;;;;;;;4.63;2.08;;;15.20;66.70;;;;;;10451181;28;20350;-56
2023/11/26 00:58:50;;;;;;;3.70;1.95;;;15.20;66.70;;;;;;10452034;28;20037;-56
2023/11/26 01:03:51;;;;;;;4.07;1.98;;;15.20;66.80;;;;;;10452366;28;20037;-56
2023/11/26 01:08:52;;;;;;;4.25;1.83;;;15.20;66.20;;;;;;10451449;28;20031;-55
2023/11/26 01:13:53;;;;;;;4.15;2.03;;;15.20;66.40;;;;;;10451915;28;20614;-56
2023/11/26 01:18:53;;;;;;;3.28;1.80;;;15.20;66.10;;;;;;10451256;28;20086;-56
2023/11/26 01:23:54;;;;;;;3.28;1.83;;;15.20;66.40;;;;;;10451226;28;20086;-56
2023/11/26 01:28:55;;;;;;;4.03;1.70;;;15.20;66.30;;;;;;10449049;28;20115;-55
2023/11/26 01:33:55;;;;;;;3.65;2.10;;;15.10;66.50;;;;;;10451068;28;20075;-55
2023/11/26 01:38:56;;;;;;;2.35;1.67;;;15.10;66.60;;;;;;10450642;28;20037;-54
2023/11/26 01:43:57;;;;;;;2.95;1.67;;;15.10;66.60;;;;;;10450665;28;20027;-56
2023/11/26 01:48:58;;;;;;;3.50;2.03;;;15.10;66.70;;;;;;10448695;28;20090;-55
2023/11/26 01:54:00;;;;;;;2.78;1.90;;;15.10;66.70;;;;;;10450356;28;20036;-56
2023/11/26 01:59:01;;;;;;;3.22;1.77;;;15.00;66.70;;;;;;10449804;28;20029;-56
2023/11/26 02:04:02;;;;;;;3.42;2.00;;;15.00;66.80;;;;;;10450109;28;20500;-55
2023/11/26 02:09:03;;;;;;;4.45;1.85;;;15.00;66.80;;;;;;10438745;28;20083;-56
2023/11/26 02:14:03;;;;;;;3.63;1.67;;;15.00;66.50;;;;;;10450118;28;20052;-56
2023/11/26 02:19:31;;;;;;;3.35;1.85;;;15.00;67.30;;;;;;10447992;28;20090;-55
2023/11/26 02:24:47;;;;;;;4.55;1.55;;;15.00;66.80;;;;;;10449271;28;20130;-56
2023/11/26 02:29:48;;;;;;;3.08;1.58;;;15.00;66.70;;;;;;10448837;28;20024;-55
2023/11/26 02:34:49;;;;;;;3.67;1.73;;;15.00;66.90;;;;;;10449210;28;20036;-55
2023/11/26 02:39:49;;;;;;;3.15;1.80;;;15.00;66.20;;;;;;10451221;28;20504;-56
2023/11/26 02:44:50;;;;;;;4.70;2.00;;;14.90;65.90;;;;;;10456100;28;20090;-56
2023/11/26 02:49:51;;;;;;;2.95;1.73;;;15.00;66.00;;;;;;10457324;28;20021;-56
2023/11/26 02:54:51;;;;;;;2.58;1.70;;;14.90;66.10;;;;;;10457338;28;20044;-56
2023/11/26 02:59:52;;;;;;;3.38;1.83;;;14.90;66.20;;;;;;10456452;28;20082;-56
2023/11/26 03:04:59;;;;;;;6.78;2.10;;;14.90;66.30;;;;;;10456824;28;20098;-55
2023/11/26 03:15:22;;;;;;;3.10;2.35;;;14.90;66.60;;;;;;10456065;28;20040;-55
2023/11/26 03:20:23;;;;;;;3.88;1.60;;;14.90;66.60;;;;;;10454689;28;20417;-56
2023/11/26 03:25:24;;;;;;;3.83;1.92;;;14.90;66.60;;;;;;10455829;28;20072;-56
2023/11/26 03:30:26;;;;;;;4.07;2.22;;;14.80;66.50;;;;;;10455433;28;20029;-55
2023/11/26 03:35:27;;;;;;;3.45;2.05;;;14.80;66.30;;;;;;10454533;28;20060;-56
2023/11/26 03:40:28;;;;;;;2.55;1.60;;;14.80;66.40;;;;;;10455393;28;20401;-56
2023/11/26 03:45:28;;;;;;;3.70;1.90;;;14.80;66.60;;;;;;10455399;28;20033;-56
2023/11/26 03:50:29;;;;;;;3.13;1.73;;;14.80;66.60;;;;;;10454125;28;20033;-56
2023/11/26 03:55:30;;;;;;;3.70;2.20;;;14.80;66.60;;;;;;10453665;28;20033;-58
2023/11/26 04:00:31;;;;;;;2.83;1.70;;;14.80;66.70;;;;;;10453096;28;20112;-56
2023/11/26 04:05:31;;;;;;;3.55;1.90;;;14.80;66.00;;;;;;10453405;28;20059;-56
2023/11/26 04:10:33;;;;;;;2.92;1.63;;;14.80;65.90;;;;;;10444107;28;20082;-56
2023/11/26 04:15:33;;;;;;;2.90;1.75;;;14.80;65.90;;;;;;10454275;28;20098;-55
2023/11/26 04:20:34;;;;;;;3.35;1.90;;;14.80;66.30;;;;;;10452320;28;20406;-55
2023/11/26 04:25:35;;;;;;;4.90;1.95;;;14.70;66.20;;;;;;10453736;28;20411;-55
2023/11/26 04:30:36;;;;;;;2.45;1.63;;;14.70;66.50;;;;;;10453150;28;20023;-55
2023/11/26 04:35:37;;;;;;;3.40;1.70;;;14.70;66.30;;;;;;10453610;28;20029;-56
2023/11/26 04:40:38;;;;;;;3.17;1.70;;;14.70;66.50;;;;;;10451546;28;20554;-56
2023/11/26 04:45:39;;;;;;;3.63;1.60;;;14.70;66.50;;;;;;10451738;28;20021;-55
2023/11/26 04:50:39;;;;;;;4.25;2.08;;;14.70;66.30;;;;;;10452458;28;20017;-55
2023/11/26 04:55:40;;;;;;;3.35;1.83;;;14.60;66.50;;;;;;10452986;28;20123;-56
2023/11/26 05:00:41;;;;;;;3.88;2.60;;;14.60;66.40;;;;;;10451980;28;20021;-54
2023/11/26 05:05:41;;;;;;;5.25;2.28;;;14.60;66.50;;;;;;10451217;28;20032;-56
2023/11/26 05:10:42;;;;;;;5.15;1.77;;;14.60;65.80;;;;;;10442164;28;20020;-57
2023/11/26 05:15:43;;;;;;;3.97;2.20;;;14.80;66.00;;;;;;10451843;28;20029;-55
2023/11/26 05:20:44;;;;;;;3.05;1.50;;;15.00;65.50;;;;;;10451238;28;20709;-56
2023/11/26 05:25:46;;;;;;;3.42;1.83;;;15.30;64.50;;;;;;10450580;28;20448;-56
2023/11/26 05:30:47;;;;;;;4.07;1.73;;;15.60;63.70;;;;;;10449947;28;20025;-56
2023/11/26 05:35:47;;;;;;;3.05;1.45;;;15.80;63.00;;;;;;10443480;28;20385;-55
2023/11/26 05:40:48;;;;;;;4.15;1.85;;;16.00;62.40;;;;;;10450073;28;20037;-56
2023/11/26 05:45:50;;;;;;;2.10;1.27;;;16.20;61.90;;;;;;10445912;28;20029;-56
2023/11/26 05:50:51;;;;;;;2.70;1.30;;;16.40;61.50;;;;;;10450497;28;20025;-56
2023/11/26 05:55:51;;;;;;;4.53;1.80;;;16.50;61.00;;;;;;10445068;28;20036;-55
2023/11/26 06:00:53;;;;;;;9.60;2.47;;;16.60;61.20;;;;;;10449903;28;20044;-55
2023/11/26 06:05:54;;;;;;;5.63;1.65;;;16.70;61.10;;;;;;10450022;28;20041;-56
2023/11/26 06:10:55;;;;;;;7.18;1.80;;;16.80;60.80;;;;;;10448588;28;20392;-55
2023/11/26 06:15:57;;;;;;;3.03;1.48;;;16.80;61.00;;;;;;10456011;28;20033;-54
2023/11/26 06:20:57;;;;;;;6.95;1.50;;;16.80;61.00;;;;;;10450097;28;20061;-54
2023/11/26 06:25:59;;;;;;;7.90;2.33;;;16.90;61.00;;;;;;10441346;28;20064;-50
2023/11/26 06:31:01;;;;;;;8.95;1.77;;;16.90;62.00;;;;;;10450700;28;20059;-54
2023/11/26 06:36:01;;;;;;;12.20;2.20;;;17.10;62.10;;;;;;10445718;28;20360;-54
2023/11/26 06:41:02;;;;;;;14.65;1.88;;;17.30;62.80;;;;;;10449678;28;20033;-53
2023/11/26 06:46:03;;;;;;;9.23;1.90;;;17.30;63.00;;;;;;10449112;28;20029;-55
2023/11/26 06:51:04;;;;;;;6.50;1.92;;;17.30;62.80;;;;;;10449442;28;20106;-56
2023/11/26 06:56:06;;;;;;;10.88;2.13;;;17.30;62.80;;;;;;10447804;28;20028;-55
2023/11/26 07:01:07;;;;;;;11.25;1.98;;;17.50;62.50;;;;;;10446688;28;20037;-55
2023/11/26 07:06:10;;;;;;;17.50;3.58;;;17.70;62.10;;;;;;10448520;28;20438;-53
2023/11/26 07:11:23;;;;;;;12.35;2.25;;;17.50;62.80;;;;;;10439633;28;20025;-55
2023/11/26 07:16:23;;;;;;;17.38;3.13;;;17.50;62.60;;;;;;10433631;28;20025;-55
2023/11/26 07:21:24;;;;;;;10.68;2.55;;;17.60;62.10;;;;;;10448121;28;20036;-55
2023/11/26 07:26:26;;;;;;;11.77;2.38;;;17.40;62.40;;;;;;10431560;28;20400;-55
2023/11/26 07:31:27;;;;;;;13.85;2.25;;;17.70;61.40;;;;;;10441550;28;20021;-53
2023/11/26 07:36:28;;;;;;;15.38;2.30;;;17.80;61.20;;;;;;10455251;28;20480;-56
2023/11/26 07:41:29;;;;;;;13.63;2.65;;;17.70;61.40;;;;;;10449594;28;20033;-55
2023/11/26 07:46:30;;;;;;;10.45;2.47;;;17.90;60.90;;;;;;10448234;28;20026;-55
2023/11/26 07:51:30;;;;;;;14.60;2.47;;;18.00;60.80;;;;;;10452630;28;20077;-55
2023/11/26 07:56:34;;;;;;;13.73;2.58;;;17.90;60.70;;;;;;10462568;28;20033;-55
2023/11/26 08:01:37;;;;;;;8.30;1.40;;;18.00;60.70;;;;;;10448451;28;20423;-55
2023/11/26 08:06:40;;;;;;;9.27;2.38;;;18.00;60.40;;;;;;10461516;28;20041;-55
2023/11/26 08:11:46;;;;;;;6.55;1.75;;;18.00;60.30;;;;;;10460583;28;20032;-56
2023/11/26 08:16:46;;;;;;;16.52;2.45;;;18.00;60.20;;;;;;10439750;28;20404;-55
2023/11/26 08:21:47;;;;;;;5.18;1.75;;;18.00;60.00;;;;;;10455453;28;20020;-55
2023/11/26 08:26:48;;;;;;;11.82;1.80;;;18.10;60.00;;;;;;10454487;28;20033;-55
2023/11/26 08:31:49;;;;;;;7.65;2.03;;;17.80;60.50;;;;;;10463054;28;20020;-54
2023/11/26 08:36:51;;;;;;;6.32;1.48;;;18.00;60.00;;;;;;10455519;28;20535;-55
2023/11/26 08:41:52;;;;;;;6.75;1.63;;;18.10;59.80;;;;;;10457841;28;20032;-55
2023/11/26 08:46:53;;;;;;;5.93;1.30;;;18.10;59.70;;;;;;10460114;28;20492;-55
2023/11/26 08:51:55;;;;;;;6.05;1.60;;;18.10;59.60;;;;;;10452552;28;20028;-55
2023/11/26 08:56:55;;;;;;;5.88;2.05;;;18.10;59.60;;;;;;10468264;28;20444;-55
2023/11/26 09:01:56;;;;;;;4.95;1.40;;;18.10;59.50;;;;;;10454662;28;20017;-55
2023/11/26 09:06:57;;;;;;;6.80;1.75;;;18.10;59.90;;;;;;10461494;28;20118;-54
2023/11/26 09:11:58;;;;;;;5.50;1.50;;;18.00;60.10;;;;;;10456191;28;20362;-54
2023/11/26 09:16:59;;;;;;;6.65;1.92;;;18.00;59.90;;;;;;10446581;28;20033;-50
2023/11/26 09:22:02;;;;;;;10.85;2.83;;;17.90;60.60;;;;;;10451430;28;20033;-54
2023/11/26 09:27:03;;;;;;;12.93;2.22;;;17.80;61.10;;;;;;10449487;28;20040;-56
2023/11/26 09:32:05;;;;;;;14.98;1.73;;;17.90;61.00;;;;;;10450320;28;20068;-53
2023/11/26 09:37:08;;;;;;;13.68;1.67;;;17.70;62.10;;;;;;10446863;28;20109;-53
2023/11/26 09:42:10;;;;;;;21.17;3.97;;;17.80;62.30;;;;;;10448917;28;20024;-52
2023/11/26 09:47:13;;;;;;;11.60;2.28;;;17.70;63.40;;;;;;10450498;28;20387;-56
2023/11/26 09:52:16;;;;;;;7.47;1.83;;;17.50;63.80;;;;;;10448787;28;20032;-54
2023/11/26 09:57:17;;;;;;;12.23;1.70;;;17.50;64.40;;;;;;10450312;28;20433;-56
2023/11/26 10:02:18;;;;;;;13.88;2.22;;;17.40;63.80;;;;;;10446114;28;20032;-53
2023/11/26 10:07:34;;;;;;;14.07;2.72;;;17.30;63.80;;;;;;10442065;28;20048;-53
2023/11/26 10:13:03;;;;;;;7.93;2.70;;;17.40;63.40;;;;;;10449966;28;20032;-53
2023/11/26 10:18:07;;;;;;;10.75;2.72;;;17.40;63.40;;;;;;10449667;28;20447;-54
2023/11/26 10:23:10;;;;;;;9.32;1.90;;;17.40;63.50;;;;;;10449899;28;20131;-53
2023/11/26 10:28:16;;;;;;;12.52;2.25;;;17.30;63.50;;;;;;10465084;28;20485;-53
2023/11/26 10:33:17;;;;;;;6.55;1.80;;;17.40;63.50;;;;;;10449910;28;20033;-54
2023/11/26 10:38:21;;;;;;;9.70;2.42;;;17.40;63.50;;;;;;10448020;28;20021;-53
2023/11/26 10:43:22;;;;;;;7.78;1.30;;;17.40;63.40;;;;;;10449488;28;20033;-54
2023/11/26 10:48:25;;;;;;;4.97;1.85;;;17.30;63.50;;;;;;10446656;28;20029;-54
2023/11/26 10:53:56;;;;;;;6.50;1.50;;;17.30;63.70;;;;;;10449899;28;20037;-53
2023/11/26 10:58:58;;;;;;;7.88;1.48;;;17.30;63.60;;;;;;10449229;28;20472;-53
2023/11/26 11:04:01;;;;;;;5.25;1.67;;;17.30;63.80;;;;;;10454522;28;20029;-53
2023/11/26 11:09:02;;;;;;;5.20;2.63;;;17.20;63.90;;;;;;10435472;28;20060;-52
2023/11/26 11:14:03;;;;;;;11.63;2.47;;;17.30;64.00;;;;;;10416960;28;20053;-55
2023/11/26 11:19:04;;;;;;;14.48;2.75;;;17.20;64.90;;;;;;10411582;28;20038;-55
2023/11/26 11:24:19;;;;;;;11.13;2.58;;;17.20;64.80;;;;;;10400963;28;20506;-55
2023/11/26 11:29:34;;;;;;;14.48;2.72;;;17.30;64.80;;;;;;10415072;28;20032;-55
2023/11/26 11:34:34;;;;;;;9.95;2.95;;;17.30;65.50;;;;;;10402108;28;20113;-57
2023/11/26 11:39:49;;;;;;;12.13;2.17;;;17.40;65.50;;;;;;10414053;28;20455;-54
2023/11/26 11:44:51;;;;;;;21.42;3.15;;;17.40;65.80;;;;;;10414783;28;20036;-53
2023/11/26 11:50:06;;;;;;;20.48;2.97;;;17.50;66.40;;;;;;10412758;28;20540;-56
2023/11/26 11:55:38;;;;;;;14.23;2.88;;;17.40;66.70;;;;;;10414242;28;20067;-54
2023/11/26 12:00:40;;;;;;;14.02;2.55;;;17.40;67.20;;;;;;10414051;28;20536;-55
2023/11/26 12:05:41;;;;;;;20.83;3.63;;;17.30;67.40;;;;;;10412244;28;20736;-53
2023/11/26 12:10:42;;;;;;;25.13;3.88;;;17.30;68.80;;;;;;10413566;28;20036;-54
2023/11/26 12:15:55;;;;;;;22.30;4.07;;;17.30;68.60;;;;;;10412288;28;20057;-53
2023/11/26 12:20:56;;;;;;;17.63;3.08;;;17.30;68.70;;;;;;10413271;28;20041;-54
2023/11/26 12:25:58;;;;;;;24.70;3.78;;;17.40;68.20;;;;;;10412558;28;20049;-54
2023/11/26 12:31:01;;;;;;;22.35;3.92;;;17.60;67.70;;;;;;10410920;28;20552;-54
2023/11/26 12:36:03;;;;;;;21.60;3.88;;;17.70;67.50;;;;;;10409895;28;20037;-55
2023/11/26 12:41:04;;;;;;;17.75;2.75;;;17.90;66.20;;;;;;10412646;28;20029;-55
2023/11/26 12:46:12;;;;;;;16.75;2.97;;;18.00;65.80;;;;;;10410425;28;20033;-56
2023/11/26 12:51:16;;;;;;;17.70;3.40;;;18.20;66.00;;;;;;10411954;28;20780;-57
2023/11/26 12:56:23;;;;;;;18.73;3.55;;;18.10;66.10;;;;;;10411175;28;20033;-55
2023/11/26 13:01:26;;;;;;;21.77;4.30;;;18.20;65.80;;;;;;10411086;28;20052;-56
2023/11/26 13:06:29;;;;;;;18.90;3.47;;;18.20;66.10;;;;;;10410379;28;20167;-56
2023/11/26 13:11:30;;;;;;;24.25;3.25;;;18.50;65.50;;;;;;10409825;28;20237;-55
2023/11/26 13:16:32;;;;;;;34.70;5.03;;;18.30;66.20;;;;;;10409063;28;20029;-55
2023/11/26 13:21:33;;;;;;;19.17;3.47;;;18.50;66.40;;;;;;10409608;28;20109;-52
2023/11/26 13:26:34;;;;;;;48.97;6.50;;;18.80;67.00;;;;;;10407280;28;20377;-53
2023/11/26 13:31:35;;;;;;;29.55;5.00;;;19.00;66.90;;;;;;10409817;28;20040;-53
2023/11/26 13:36:35;;;;;;;33.15;5.18;;;18.80;67.50;;;;;;10408720;28;20033;-51
2023/11/26 13:41:40;;;;;;;30.05;6.18;;;18.90;67.40;;;;;;10407918;28;20484;-54
2023/11/26 13:46:42;;;;;;;33.25;7.03;;;18.90;68.50;;;;;;10408005;28;20033;-54
2023/11/26 13:51:42;;;;;;;53.83;7.40;;;18.80;68.40;;;;;;10409189;28;20381;-55
2023/11/26 13:56:43;;;;;;;42.40;6.35;;;18.60;70.50;;;;;;10408065;28;20029;-54
2023/11/26 14:01:44;;;;;;;45.83;8.63;;;18.40;71.00;;;;;;10408648;28;20034;-54
2023/11/26 14:06:45;;;;;;;36.95;8.82;;;18.30;71.80;;;;;;10408759;28;20025;-52
2023/11/26 14:11:46;;;;;;;46.63;6.35;;;18.20;72.80;;;;;;10408012;28;20032;-54
2023/11/26 14:16:47;;;;;;;39.33;6.05;;;18.30;72.20;;;;;;10395093;28;20045;-48
2023/11/26 14:21:47;;;;;;;31.17;5.13;;;18.40;71.90;;;;;;10407447;28;20026;-55
2023/11/26 14:26:48;;;;;;;32.60;5.85;;;18.30;70.30;;;;;;10408334;28;20047;-55
2023/11/26 14:31:49;;;;;;;26.65;4.68;;;18.20;69.90;;;;;;10406933;28;20029;-54
2023/11/26 14:36:49;;;;;;;20.98;4.85;;;18.20;69.50;;;;;;10406966;28;20043;-55
2023/11/26 14:41:50;;;;;;;21.27;3.70;;;18.10;69.00;;;;;;10407731;28;20033;-55
2023/11/26 14:46:54;;;;;;;15.20;3.78;;;18.10;68.80;;;;;;10408347;28;20041;-54
2023/11/26 14:51:55;;;;;;;19.77;4.22;;;18.00;68.60;;;;;;10407775;28;20048;-55
2023/11/26 14:56:56;;;;;;;14.82;3.38;;;18.10;68.20;;;;;;10408019;28;20036;-54
2023/11/26 15:01:56;;;;;;;18.27;3.60;;;18.20;67.50;;;;;;10407504;28;20028;-53
2023/11/26 15:06:57;;;;;;;11.95;3.03;;;18.30;66.90;;;;;;10407748;28;20034;-55
2023/11/26 15:11:58;;;;;;;16.13;3.40;;;18.40;66.40;;;;;;10406826;28;20591;-57
2023/11/26 15:16:58;;;;;;;13.75;2.40;;;18.30;66.80;;;;;;10407440;28;20039;-55
2023/11/26 15:22:06;;;;;;;15.90;3.00;;;18.40;67.60;;;;;;10388892;28;20049;-56
2023/11/26 15:27:06;;;;;;;19.73;4.13;;;18.70;68.20;;;;;;10405973;28;20056;-56
2023/11/26 15:32:07;;;;;;;23.23;4.18;;;18.70;68.50;;;;;;10406696;28;20040;-57
2023/11/26 15:37:10;;;;;;;35.65;6.13;;;18.80;69.00;;;;;;10403771;28;20029;-56
2023/11/26 15:42:12;;;;;;;19.77;4.03;;;18.70;70.80;;;;;;10406514;28;20040;-55
2023/11/26 15:47:12;;;;;;;34.53;5.25;;;18.60;70.30;;;;;;10407731;28;20040;-55
2023/11/26 15:52:13;;;;;;;44.08;7.00;;;18.30;71.70;;;;;;10406502;28;20029;-54
2023/11/26 15:57:14;;;;;;;33.17;5.25;;;18.20;72.00;;;;;;10414097;28;20469;-56
2023/11/26 16:02:14;;;;;;;28.58;5.07;;;18.40;72.30;;;;;;10413376;28;20092;-54
2023/11/26 16:07:15;;;;;;;20.63;5.30;;;18.40;72.50;;;;;;10411479;28;20025;-56
2023/11/26 16:12:16;;;;;;;26.45;4.40;;;18.50;72.90;;;;;;10411744;28;20029;-54
2023/11/26 16:17:16;;;;;;;23.00;4.90;;;18.40;72.60;;;;;;10413445;28;20032;-55
2023/11/26 16:22:17;;;;;;;19.83;4.65;;;18.30;72.00;;;;;;10412872;28;20049;-54
2023/11/26 16:27:18;;;;;;;17.15;4.43;;;18.20;72.10;;;;;;10412921;28;20046;-56
2023/11/26 16:32:19;;;;;;;24.58;4.90;;;18.40;71.60;;;;;;10412408;28;20029;-55
2023/11/26 16:37:19;;;;;;;23.98;4.18;;;18.50;71.00;;;;;;10412833;28;20026;-55
2023/11/26 16:42:20;;;;;;;24.30;5.32;;;18.70;69.50;;;;;;10412025;28;20496;-55
2023/11/26 16:47:21;;;;;;;22.25;4.32;;;18.70;69.60;;;;;;10411688;28;20075;-55
2023/11/26 16:52:22;;;;;;;20.60;4.43;;;18.70;71.30;;;;;;10411041;28;20376;-54
2023/11/26 16:57:24;;;;;;;17.30;3.85;;;18.80;70.40;;;;;;10411638;28;20087;-55
2023/11/26 17:02:25;;;;;;;17.60;4.00;;;18.70;71.90;;;;;;10411188;28;20038;-53
2023/11/26 17:07:26;;;;;;;12.60;3.35;;;18.80;71.60;;;;;;10408604;28;20116;-55
2023/11/26 17:12:26;;;;;;;13.32;3.60;;;18.80;72.10;;;;;;10410829;28;20021;-55
2023/11/26 17:17:27;;;;;;;11.45;3.70;;;18.80;72.60;;;;;;10410123;28;20030;-54
2023/11/26 17:22:28;;;;;;;18.63;3.88;;;18.80;72.10;;;;;;10408115;28;20488;-55
2023/11/26 17:27:28;;;;;;;10.80;2.95;;;18.70;72.00;;;;;;10410345;28;20457;-54
2023/11/26 17:32:29;;;;;;;18.95;4.07;;;18.60;72.30;;;;;;10408332;28;20033;-55
2023/11/26 17:37:30;;;;;;;21.50;4.70;;;18.40;72.40;;;;;;10410157;28;20417;-56
2023/11/26 17:42:31;;;;;;;16.95;4.30;;;18.30;72.60;;;;;;10408143;28;20037;-55
2023/11/26 17:47:31;;;;;;;18.27;4.85;;;18.20;71.90;;;;;;10400573;28;20381;-55
2023/11/26 17:52:32;;;;;;;15.63;4.03;;;18.10;72.30;;;;;;10398322;28;20041;-55
2023/11/26 17:57:33;;;;;;;16.88;4.90;;;18.00;72.30;;;;;;10407829;28;20029;-55
2023/11/26 18:02:34;;;;;;;18.13;4.20;;;18.00;72.20;;;;;;10408156;28;20037;-56
2023/11/26 18:07:34;;;;;;;16.15;3.88;;;17.90;72.00;;;;;;10404920;28;20037;-55
2023/11/26 18:12:35;;;;;;;11.95;3.63;;;17.80;72.10;;;;;;10406273;28;20033;-55
2023/11/26 18:17:36;;;;;;;16.02;3.83;;;17.80;72.00;;;;;;10408082;28;20029;-54
2023/11/26 18:22:37;;;;;;;11.15;3.95;;;17.90;71.70;;;;;;10406072;28;20036;-56
2023/11/26 18:27:38;;;;;;;13.35;3.50;;;17.80;72.00;;;;;;10405630;28;20033;-55
2023/11/26 18:32:39;;;;;;;12.68;4.05;;;17.90;71.00;;;;;;10407566;28;20033;-55
2023/11/26 18:37:40;;;;;;;10.98;3.65;;;18.00;70.70;;;;;;10408403;28;20057;-55
2023/11/26 18:42:45;;;;;;;13.73;3.63;;;18.00;70.50;;;;;;10393172;28;20038;-54
2023/11/26 18:47:46;;;;;;;8.75;3.03;;;17.90;70.50;;;;;;10376310;28;20103;-55
2023/11/26 18:52:47;;;;;;;20.75;4.53;;;17.90;71.00;;;;;;10403961;28;20029;-54
2023/11/26 18:57:48;;;;;;;11.05;3.58;;;17.90;70.90;;;;;;10408092;28;20052;-54
2023/11/26 19:02:48;;;;;;;13.45;3.58;;;17.90;70.90;;;;;;10402262;28;20037;-53
2023/11/26 19:07:49;;;;;;;8.13;2.72;;;18.00;70.40;;;;;;10400964;28;20049;-53
2023/11/26 19:12:50;;;;;;;11.57;3.25;;;18.00;70.00;;;;;;10407162;28;20036;-53
2023/11/26 19:17:50;;;;;;;12.60;4.22;;;18.20;69.10;;;;;;10407618;28;20030;-56
2023/11/26 19:22:52;;;;;;;17.80;3.40;;;18.20;69.00;;;;;;10409435;28;20505;-55
2023/11/26 19:27:53;;;;;;;9.90;3.25;;;18.30;68.70;;;;;;10411462;28;20032;-54
2023/11/26 19:32:56;;;;;;;11.82;2.80;;;18.30;68.30;;;;;;10413921;28;20546;-53
2023/11/26 19:37:57;;;;;;;10.75;3.25;;;18.40;68.20;;;;;;10414808;28;20037;-54
2023/11/26 19:42:57;;;;;;;11.88;3.95;;;18.30;67.80;;;;;;10405724;28;20040;-53
2023/11/26 19:47:58;;;;;;;9.63;2.83;;;18.40;67.50;;;;;;10414037;28;20037;-54
2023/11/26 19:52:59;;;;;;;6.75;3.03;;;18.40;67.50;;;;;;10413457;28;20034;-54
2023/11/26 19:58:00;;;;;;;8.63;2.85;;;18.40;67.30;;;;;;10413659;28;20033;-54
2023/11/26 20:03:01;;;;;;;5.70;2.35;;;18.40;67.50;;;;;;10399642;28;20091;-54
2023/11/26 20:08:01;;;;;;;8.52;4.07;;;18.40;67.20;;;;;;10408674;28;20037;-55
2023/11/26 20:13:02;;;;;;;8.80;2.90;;;18.30;67.00;;;;;;10410809;28;20475;-54
2023/11/26 20:18:04;;;;;;;9.95;3.33;;;18.30;67.20;;;;;;10404996;28;20037;-54
2023/11/26 20:23:04;;;;;;;12.73;3.13;;;18.10;67.50;;;;;;10390351;28;20034;-54
2023/11/26 20:28:06;;;;;;;8.70;3.20;;;18.00;67.80;;;;;;10412348;28;20038;-55
2023/11/26 20:33:07;;;;;;;7.05;3.03;;;17.90;68.20;;;;;;10409166;28;20101;-54
2023/11/26 20:38:08;;;;;;;5.55;3.00;;;17.80;68.60;;;;;;10406963;28;20041;-55
2023/11/26 20:43:08;;;;;;;9.70;2.80;;;17.70;68.80;;;;;;10410804;28;20029;-55
2023/11/26 20:48:09;;;;;;;6.90;3.50;;;17.60;69.10;;;;;;10411905;28;20033;-55
2023/11/26 20:53:10;;;;;;;6.80;3.70;;;17.60;69.10;;;;;;10411107;28;20038;-54
2023/11/26 20:58:10;;;;;;;8.52;3.35;;;17.50;69.30;;;;;;10409373;28;20029;-55
2023/11/26 21:03:11;;;;;;;6.68;3.10;;;17.40;69.40;;;;;;10409094;28;20040;-55
2023/11/26 21:08:12;;;;;;;5.60;3.35;;;17.30;69.60;;;;;;10406248;28;20025;-55
2023/11/26 21:13:12;;;;;;;6.90;2.97;;;17.20;69.50;;;;;;10409216;28;20024;-55
2023/11/26 21:18:14;;;;;;;5.55;3.00;;;17.10;69.60;;;;;;10409762;28;20037;-55
2023/11/26 21:23:14;;;;;;;7.25;3.60;;;17.00;69.70;;;;;;10410084;28;20053;-55
2023/11/26 21:28:16;;;;;;;7.25;3.30;;;17.00;69.70;;;;;;10407592;28;20100;-55
2023/11/26 21:33:17;;;;;;;7.03;3.45;;;16.90;69.70;;;;;;10404370;28;20026;-55
2023/11/26 21:38:18;;;;;;;4.63;3.00;;;16.90;69.80;;;;;;10410025;28;20393;-55
2023/11/26 21:43:18;;;;;;;5.72;3.47;;;16.90;69.80;;;;;;10410063;28;20025;-55
2023/11/26 21:48:20;;;;;;;6.93;3.55;;;16.80;69.80;;;;;;10408920;28;20409;-55
2023/11/26 21:53:21;;;;;;;6.00;3.80;;;16.80;69.80;;;;;;10409763;28;20071;-55
2023/11/26 21:58:22;;;;;;;6.30;3.38;;;16.70;69.80;;;;;;10408118;28;20091;-54
2023/11/26 22:03:22;;;;;;;8.20;3.85;;;16.70;69.90;;;;;;10409465;28;20026;-55
2023/11/26 22:08:23;;;;;;;8.60;3.50;;;16.60;69.90;;;;;;10408942;28;20034;-55
2023/11/26 22:13:24;;;;;;;6.95;3.45;;;16.60;69.90;;;;;;10409226;28;20032;-54
2023/11/26 22:18:26;;;;;;;5.28;3.30;;;16.60;69.90;;;;;;10408620;28;20033;-55
2023/11/26 22:23:28;;;;;;;5.75;3.55;;;16.50;69.80;;;;;;10408765;28;20064;-55
2023/11/26 22:28:29;;;;;;;6.03;4.03;;;16.50;69.70;;;;;;10408362;28;20795;-55
2023/11/26 22:33:29;;;;;;;7.35;4.43;;;16.40;69.70;;;;;;10408974;28;20041;-55
2023/11/26 22:38:30;;;;;;;5.60;3.50;;;16.40;69.60;;;;;;10406947;28;20025;-54
2023/11/26 22:43:31;;;;;;;5.95;3.13;;;16.40;69.60;;;;;;10407341;28;20075;-55
2023/11/26 22:48:32;;;;;;;6.05;3.75;;;16.40;69.40;;;;;;10407945;28;20029;-55
2023/11/26 22:53:32;;;;;;;5.45;3.70;;;16.30;69.30;;;;;;10408269;28;20020;-55
2023/11/26 22:58:34;;;;;;;5.55;3.90;;;16.30;69.20;;;;;;10413261;28;20026;-55
2023/11/26 23:03:34;;;;;;;6.82;3.88;;;16.30;69.20;;;;;;10416213;28;20369;-54
2023/11/26 23:08:35;;;;;;;6.93;3.97;;;16.30;69.20;;;;;;10413190;28;20025;-55
2023/11/26 23:13:36;;;;;;;6.50;3.83;;;16.20;69.20;;;;;;10414780;28;20021;-54
2023/11/26 23:18:37;;;;;;;6.55;3.38;;;16.20;69.10;;;;;;10414297;28;20030;-55
2023/11/26 23:23:38;;;;;;;7.78;4.28;;;16.20;69.00;;;;;;10415478;28;20046;-55
2023/11/26 23:28:39;;;;;;;6.32;4.13;;;16.20;69.00;;;;;;10415209;28;20101;-55
2023/11/26 23:33:39;;;;;;;5.60;3.90;;;16.20;69.00;;;;;;10409277;28;20056;-54
2023/11/26 23:38:42;;;;;;;5.80;3.90;;;16.10;68.80;;;;;;10413792;28;20778;-54
2023/11/26 23:43:43;;;;;;;6.45;4.25;;;16.10;68.80;;;;;;10414783;28;20040;-54
2023/11/26 23:48:44;;;;;;;7.65;4.40;;;16.10;68.70;;;;;;10414271;28;20036;-54
2023/11/26 23:53:44;;;;;;;9.98;5.10;;;16.10;68.80;;;;;;10414582;28;20029;-55
2023/11/26 23:58:45;;;;;;;6.07;4.07;;;16.10;68.70;;;;;;10414116;28;20032;-54
